createdAt,value
2023-04-15T00:00:50.449Z,95.11
2023-04-15T00:02:52.088Z,95.04
2023-04-15T00:06:55.028Z,95.31
2023-04-15T00:10:57.424Z,95.39
2023-04-15T00:12:59.426Z,95.49
2023-04-15T00:17:01.859Z,95.59
2023-04-15T00:19:03.288Z,95.54
2023-04-15T00:23:06.891Z,95.46
2023-04-15T00:27:08.660Z,95.89
2023-04-15T00:29:09.900Z,96.15
2023-04-15T00:33:12.771Z,96.22
2023-04-15T00:37:15.030Z,96.21
2023-04-15T00:39:16.597Z,96.25
2023-04-15T00:43:20.418Z,96.2
2023-04-15T00:45:21.842Z,96.14
2023-04-15T00:49:24.232Z,96.04
2023-04-15T00:53:26.847Z,95.96
2023-04-15T00:55:28.858Z,95.88
2023-04-15T00:59:31.716Z,96.13
2023-04-15T01:01:33.626Z,96.08
2023-04-15T01:05:36.808Z,96.6
2023-04-15T01:09:39.433Z,96.49
2023-04-15T01:11:41.156Z,96.47
2023-04-15T01:15:44.554Z,96.64
2023-04-15T01:19:47.941Z,96.69
2023-04-15T01:21:49.955Z,96.7
2023-04-15T01:25:53.595Z,96.68
2023-04-15T01:27:55.107Z,96.67
2023-04-15T01:31:58.244Z,96.63
2023-04-15T01:36:00.932Z,96.68
2023-04-15T01:38:02.872Z,96.69
2023-04-15T01:42:05.196Z,96.79
2023-04-15T01:44:06.526Z,96.73
2023-04-15T01:48:09.880Z,96.56
2023-04-15T01:52:13.096Z,96.55
2023-04-15T01:54:14.139Z,96.55
2023-04-15T01:58:17.239Z,96.53
2023-04-15T02:02:19.982Z,96.52
2023-04-15T02:04:21.398Z,96.56
2023-04-15T02:08:23.687Z,96.55
2023-04-15T02:10:25.142Z,96.53
2023-04-15T02:12:26.609Z,96.53
2023-04-15T02:14:28.148Z,96.59
2023-04-15T02:18:31.397Z,96.59
2023-04-15T02:20:32.457Z,96.53
2023-04-15T02:22:33.599Z,96.51
2023-04-15T02:24:34.880Z,96.48
2023-04-15T02:26:36.132Z,96.43
2023-04-15T02:30:39.052Z,96.39
2023-04-15T02:34:41.328Z,96.47
2023-04-15T02:36:42.880Z,96.46
2023-04-15T02:40:46.170Z,96.53
2023-04-15T02:42:47.322Z,96.53
2023-04-15T02:46:50.953Z,96.58
2023-04-15T02:50:53.910Z,96.59
2023-04-15T02:52:55.549Z,96.56
2023-04-15T02:56:58.663Z,96.54
2023-04-15T03:01:01.476Z,96.54
2023-04-15T03:03:03.557Z,96.51
2023-04-15T03:07:06.436Z,96.66
2023-04-15T03:09:08.348Z,96.55
2023-04-15T03:13:10.705Z,96.41
2023-04-15T03:17:13.553Z,96.31
2023-04-15T03:19:14.586Z,96.26
2023-04-15T03:23:17.271Z,96.21
2023-04-15T03:25:18.385Z,96.13
2023-04-15T03:29:21.633Z,96.19
2023-04-15T03:33:24.165Z,96.29
2023-04-15T03:35:25.791Z,96.23
2023-04-15T03:39:29.320Z,96.16
2023-04-15T03:43:32.166Z,96.09
2023-04-15T03:45:33.988Z,96.02
2023-04-15T03:49:37.076Z,96.08
2023-04-15T03:51:38.581Z,96.05
2023-04-15T03:55:40.757Z,96.26
2023-04-15T03:59:43.855Z,96.57
2023-04-15T04:01:45.525Z,96.6
2023-04-15T04:05:48.294Z,96.66
2023-04-15T04:07:50.090Z,96.67
2023-04-15T04:11:52.701Z,96.63
2023-04-15T04:15:56.691Z,96.78
2023-04-15T04:17:57.990Z,96.83
2023-04-15T04:20:43.313Z,96.89
2023-04-15T04:22:45.228Z,96.95
2023-04-15T04:26:48.108Z,96.95
2023-04-15T04:28:49.464Z,97.05
2023-04-15T04:30:51.326Z,97.11
2023-04-15T04:32:52.875Z,97.19
2023-04-15T04:36:55.862Z,97.19
2023-04-15T04:38:57.035Z,97.17
2023-04-15T04:40:58.651Z,97.19
2023-04-15T04:42:59.931Z,97.19
2023-04-15T04:45:01.524Z,97.25
2023-04-15T04:49:03.946Z,97.39
2023-04-15T04:53:06.483Z,97.51
2023-04-15T04:55:07.905Z,97.48
2023-04-15T04:59:11.384Z,97.44
2023-04-15T05:01:12.929Z,97.49
2023-04-15T05:05:15.716Z,97.5
2023-04-15T05:09:18.261Z,97.55
2023-04-15T05:11:19.667Z,97.57
2023-04-15T05:15:22.514Z,97.52
2023-04-15T05:19:25.829Z,97.48
2023-04-15T05:21:26.930Z,97.5
2023-04-15T05:25:29.448Z,96.96
2023-04-15T05:27:30.980Z,96.85
2023-04-15T05:31:33.939Z,96.76
2023-04-15T05:35:36.654Z,96.63
2023-04-15T05:37:38.432Z,96.85
2023-04-15T05:41:41.966Z,96.89
2023-04-15T05:43:43.792Z,96.77
2023-04-15T05:47:45.959Z,96.93
2023-04-15T05:51:49.759Z,96.8
2023-04-15T05:53:50.992Z,96.78
2023-04-15T05:57:54.029Z,96.59
2023-04-15T06:01:57.365Z,96.31
2023-04-15T06:03:59.059Z,95.81
2023-04-15T06:08:02.006Z,95.23
2023-04-15T06:10:03.312Z,95.05
2023-04-15T06:14:06.313Z,94.99
2023-04-15T06:18:09.191Z,94.55
2023-04-15T06:20:10.793Z,94.34
2023-04-15T06:24:13.386Z,94.23
2023-04-15T06:26:15.113Z,94.03
2023-04-15T06:30:17.957Z,93.33
2023-04-15T06:34:20.793Z,92.99
2023-04-15T06:36:22.641Z,91.84
2023-04-15T06:40:26.203Z,92.3
2023-04-15T06:44:28.599Z,91.98
2023-04-15T06:46:30.399Z,92.28
2023-04-15T06:50:33.282Z,91.13
2023-04-15T06:52:34.386Z,91.08
2023-04-15T06:56:37.293Z,89.41
2023-04-15T07:00:40.672Z,90.12
2023-04-15T07:02:41.540Z,90.11
2023-04-15T07:06:43.910Z,90.12
2023-04-15T07:08:45.304Z,89.09
2023-04-15T07:12:47.821Z,88.52
2023-04-15T07:16:50.443Z,88.69
2023-04-15T07:18:52.214Z,87.87
2023-04-15T07:22:55.069Z,87.22
2023-04-15T07:29:00.144Z,86.73
2023-04-15T07:33:02.596Z,84.66
2023-04-15T07:35:03.704Z,84.72
2023-04-15T07:39:05.890Z,82.93
2023-04-15T07:43:08.477Z,80.88
2023-04-15T07:45:09.678Z,79.81
2023-04-15T07:49:12.517Z,81.26
2023-04-15T07:51:14.189Z,80.93
2023-04-15T07:55:16.170Z,80.14
2023-04-15T07:59:19.733Z,79.73
2023-04-15T08:01:21.405Z,80.34
2023-04-15T08:05:24.100Z,80.42
2023-04-15T08:07:25.081Z,80.72
2023-04-15T08:11:28.283Z,76.94
2023-04-15T08:15:30.604Z,76.63
2023-04-15T08:17:32.367Z,76.56
2023-04-15T08:21:35.300Z,77.07
2023-04-15T08:25:37.621Z,75.89
2023-04-15T08:27:38.541Z,74.78
2023-04-15T08:31:41.532Z,74.14
2023-04-15T08:33:43.170Z,76.08
2023-04-15T08:37:46.104Z,74.99
2023-04-15T08:41:48.301Z,72.99
2023-04-15T08:43:49.249Z,72.83
2023-04-15T08:47:52.216Z,70.61
2023-04-15T08:49:53.425Z,70.24
2023-04-15T08:53:56.547Z,68.42
2023-04-15T08:57:59.981Z,68.1
2023-04-15T09:00:02.957Z,68.3
2023-04-15T09:04:03.840Z,67.29
2023-04-15T09:08:07.235Z,66.42
2023-04-15T09:10:09.576Z,67
2023-04-15T09:14:12.848Z,66.64
2023-04-15T09:16:13.780Z,65.81
2023-04-15T09:20:16.059Z,66.82
2023-04-15T09:24:18.371Z,63.99
2023-04-15T09:26:19.371Z,66.88
2023-04-15T09:30:23.055Z,64.33
2023-04-15T09:32:24.918Z,61.78
2023-04-15T09:36:28.618Z,59.9
2023-04-15T09:40:31.157Z,60.77
2023-04-15T09:42:32.138Z,60.82
2023-04-15T09:46:34.803Z,60.88
2023-04-15T09:50:37.513Z,61.1
2023-04-15T09:52:38.633Z,61.5
2023-04-15T09:56:41.663Z,62.22
2023-04-15T09:58:42.818Z,62.73
2023-04-15T10:00:43.833Z,63.31
2023-04-15T10:02:44.897Z,60.28
2023-04-15T10:06:48.401Z,61.95
2023-04-15T10:08:50.782Z,60.41
2023-04-15T10:10:52.335Z,60.85
2023-04-15T10:12:53.367Z,59.24
2023-04-15T10:14:55.174Z,59.54
2023-04-15T10:18:58.359Z,59.4
2023-04-15T10:23:01.219Z,56.82
2023-04-15T10:25:03.041Z,56.2
2023-04-15T10:29:06.292Z,56.69
2023-04-15T10:31:07.507Z,55.04
2023-04-15T10:35:10.091Z,54.6
2023-04-15T10:39:13.134Z,57.6
2023-04-15T10:41:15.449Z,60.05
2023-04-15T10:45:17.322Z,62.31
2023-04-15T10:49:20.227Z,61.02
2023-04-15T10:51:21.926Z,60.65
2023-04-15T10:55:24.102Z,58.68
2023-04-15T10:57:25.417Z,59.07
2023-04-15T11:01:28.577Z,59.12
2023-04-15T11:05:31.858Z,61.58
2023-04-15T11:08:17.468Z,62.21
2023-04-15T11:12:20.551Z,62.53
2023-04-15T11:16:22.852Z,63.83
2023-04-15T11:18:24.618Z,62.54
2023-04-15T11:22:27.432Z,64.07
2023-04-15T11:26:30.131Z,63.87
2023-04-15T11:28:31.855Z,64.33
2023-04-15T11:32:34.714Z,65.53
2023-04-15T11:34:36.353Z,67.1
2023-04-15T11:38:38.798Z,67.55
2023-04-15T11:42:49.385Z,67.94
2023-04-15T11:44:42.612Z,68.49
2023-04-15T11:48:45.182Z,68.06
2023-04-15T11:50:46.879Z,68.25
2023-04-15T11:54:48.729Z,69.96
2023-04-15T11:58:52.266Z,68.2
2023-04-15T12:00:54.136Z,68.2
2023-04-15T12:04:56.948Z,69.94
2023-04-15T12:08:59.158Z,72.82
2023-04-15T12:11:00.399Z,71.83
2023-04-15T12:15:03.304Z,74.54
2023-04-15T12:17:04.474Z,74.37
2023-04-15T12:19:06.324Z,72.03
2023-04-15T12:21:07.354Z,72.94
2023-04-15T12:25:10.014Z,75.77
2023-04-15T12:27:11.064Z,76.35
2023-04-15T12:29:12.099Z,75.3
2023-04-15T12:31:13.846Z,77.15
2023-04-15T12:33:15.156Z,78.66
2023-04-15T12:37:17.937Z,80.29
2023-04-15T12:41:20.505Z,81.49
2023-04-15T12:43:22.336Z,80.45
2023-04-15T12:47:24.416Z,81.84
2023-04-15T12:49:25.594Z,81.44
2023-04-15T12:53:27.583Z,81.3
2023-04-15T12:57:30.240Z,80.53
2023-04-15T12:59:31.301Z,80.81
2023-04-15T13:03:34.097Z,81.21
2023-04-15T13:07:37.087Z,81.98
2023-04-15T13:09:38.303Z,82.24
2023-04-15T13:13:41.328Z,81.79
2023-04-15T13:15:42.651Z,82.36
2023-04-15T13:19:45.380Z,83.6
2023-04-15T13:23:47.489Z,83.43
2023-04-15T13:25:48.514Z,83.58
2023-04-15T13:29:51.236Z,83.79
2023-04-15T13:31:52.327Z,84.05
2023-04-15T13:35:55.066Z,83.98
2023-04-15T13:39:57.833Z,85.05
2023-04-15T13:41:59.444Z,86.35
2023-04-15T13:46:02.295Z,87.62
2023-04-15T13:50:04.382Z,87.98
2023-04-15T13:52:05.960Z,87.89
2023-04-15T13:56:09.471Z,88.49
2023-04-15T13:58:10.915Z,88.89
2023-04-15T14:02:13.727Z,88.65
2023-04-15T14:06:16.061Z,89.57
2023-04-15T14:08:17.985Z,89.63
2023-04-15T14:12:21.255Z,89.84
2023-04-15T14:14:22.276Z,89.78
2023-04-15T14:18:24.449Z,90.89
2023-04-15T14:22:27.112Z,90.5
2023-04-15T14:24:28.328Z,90.28
2023-04-15T14:28:31.794Z,90.99
2023-04-15T14:34:36.215Z,90.52
2023-04-15T14:38:38.878Z,90.97
2023-04-15T14:40:40.074Z,90.76
2023-04-15T14:44:42.306Z,91.54
2023-04-15T14:46:43.429Z,91.12
2023-04-15T14:50:46.180Z,91.28
2023-04-15T14:54:49.309Z,91.79
2023-04-15T14:56:50.908Z,91.54
2023-04-15T15:00:54.151Z,91.73
2023-04-15T15:02:56.000Z,92.07
2023-04-15T15:06:58.131Z,92.25
2023-04-15T15:11:00.829Z,92.17
2023-04-15T15:13:02.611Z,92.17
2023-04-15T15:17:06.180Z,92.11
2023-04-15T15:21:09.273Z,92.32
2023-04-15T15:23:10.798Z,92.69
2023-04-15T15:27:13.841Z,92.78
2023-04-15T15:29:15.442Z,92.76
2023-04-15T15:33:18.188Z,92.53
2023-04-15T15:37:21.095Z,93.01
2023-04-15T15:39:22.145Z,92.71
2023-04-15T15:43:24.929Z,92.82
2023-04-15T15:45:26.467Z,92.84
2023-04-15T15:49:29.071Z,92.94
2023-04-15T15:53:32.405Z,93.01
2023-04-15T15:55:34.175Z,93.1
2023-04-15T15:59:36.487Z,93.3
2023-04-15T16:03:39.179Z,93.67
2023-04-15T16:05:40.787Z,93.98
2023-04-15T16:09:44.494Z,93.98
2023-04-15T16:11:45.934Z,94.18
2023-04-15T16:15:48.254Z,94.37
2023-04-15T16:19:55.707Z,94.45
2023-04-15T16:21:52.776Z,94.49
2023-04-15T16:25:56.422Z,94.91
2023-04-15T16:28:01.251Z,94.99
2023-04-15T16:32:00.752Z,95.13
2023-04-15T16:36:04.055Z,94.95
2023-04-15T16:38:05.102Z,95.07
2023-04-15T16:42:08.272Z,95.01
2023-04-15T16:44:09.832Z,95.05
2023-04-15T16:48:11.890Z,95.06
2023-04-15T16:52:14.506Z,95.12
2023-04-15T16:54:15.405Z,95.29
2023-04-15T16:56:16.628Z,95.36
2023-04-15T16:58:18.013Z,95.24
2023-04-15T17:02:21.451Z,95.42
2023-04-15T17:04:22.992Z,95.51
2023-04-15T17:06:24.595Z,95.53
2023-04-15T17:08:26.542Z,95.53
2023-04-15T17:10:28.087Z,95.66
2023-04-15T17:14:39.057Z,95.83
2023-04-15T17:16:32.021Z,95.86
2023-04-15T17:18:33.930Z,95.94
2023-04-15T17:20:35.153Z,96.06
2023-04-15T17:24:38.376Z,96.17
2023-04-15T17:26:40.220Z,96.21
2023-04-15T17:30:43.323Z,96.17
2023-04-15T17:34:49.359Z,96.18
2023-04-15T17:36:47.713Z,96.29
2023-04-15T17:40:50.767Z,96.32
2023-04-15T17:44:53.406Z,96.45
2023-04-15T17:47:03.092Z,96.47
2023-04-15T17:48:56.619Z,96.46
2023-04-15T17:50:57.658Z,96.49
2023-04-15T17:55:44.679Z,96.48
2023-04-15T17:57:46.215Z,96.49
2023-04-15T18:01:49.433Z,96.43
2023-04-15T18:03:51.037Z,96.43
2023-04-15T18:07:53.049Z,96.45
2023-04-15T18:11:55.974Z,96.38
2023-04-15T18:13:57.134Z,96.39
2023-04-15T18:17:59.491Z,96.38
2023-04-15T18:22:02.403Z,96.41
2023-04-15T18:24:04.425Z,96.45
2023-04-15T18:28:06.810Z,96.54
2023-04-15T18:30:07.817Z,96.56
2023-04-15T18:34:10.706Z,96.6
2023-04-15T18:38:14.049Z,96.64
2023-04-15T18:40:15.221Z,96.68
2023-04-15T18:44:17.970Z,96.74
2023-04-15T18:46:19.644Z,96.75
2023-04-15T18:50:22.278Z,96.85
2023-04-15T18:54:35.092Z,96.96
2023-04-15T18:56:26.521Z,97
2023-04-15T19:00:28.979Z,97.05
2023-04-15T19:04:31.970Z,97.05
2023-04-15T19:06:33.735Z,97.09
2023-04-15T19:10:37.512Z,97.14
2023-04-15T19:12:38.611Z,97.12
2023-04-15T19:14:40.450Z,97.12
2023-04-15T19:16:42.385Z,97.16
2023-04-15T19:20:44.982Z,97.23
2023-04-15T19:22:46.504Z,97.24
2023-04-15T19:24:47.937Z,97.24
2023-04-15T19:26:49.118Z,97.23
2023-04-15T19:28:50.727Z,97.24
2023-04-15T19:32:53.415Z,97.3
2023-04-15T19:36:56.751Z,97.32
2023-04-15T19:38:58.130Z,97.35
2023-04-15T19:43:01.625Z,97.41
2023-04-15T19:49:05.616Z,97.56
2023-04-15T19:53:08.074Z,97.56
2023-04-15T19:55:09.791Z,97.63
2023-04-15T19:59:12.968Z,97.63
2023-04-15T20:03:16.054Z,97.65
2023-04-15T20:05:16.945Z,97.66
2023-04-15T20:09:19.914Z,97.71
2023-04-15T20:11:21.202Z,97.72
2023-04-15T20:15:24.330Z,97.71
2023-04-15T20:19:26.773Z,97.74
2023-04-15T20:21:28.524Z,97.74
2023-04-15T20:25:30.570Z,97.76
2023-04-15T20:27:32.094Z,97.74
2023-04-15T20:31:34.520Z,97.76
2023-04-15T20:35:36.932Z,97.8
2023-04-15T20:37:37.952Z,97.83
2023-04-15T20:41:40.484Z,97.82
2023-04-15T20:45:43.196Z,97.82
2023-04-15T20:47:45.021Z,97.83
2023-04-15T20:51:47.854Z,97.84
2023-04-15T20:53:49.113Z,97.86
2023-04-15T20:57:52.515Z,97.88
2023-04-15T21:01:55.885Z,97.91
2023-04-15T21:03:57.397Z,97.89
2023-04-15T21:07:59.720Z,97.91
2023-04-15T21:10:00.743Z,97.99
2023-04-15T21:14:03.489Z,97.97
2023-04-15T21:18:05.747Z,97.96
2023-04-15T21:20:06.862Z,97.97
2023-04-15T21:24:10.250Z,98.03
2023-04-15T21:30:14.371Z,98.03
2023-04-15T21:34:17.162Z,98.04
2023-04-15T21:36:18.319Z,98.05
2023-04-15T21:38:21.312Z,98.05
2023-04-15T21:40:21.821Z,98.04
2023-04-15T21:44:24.780Z,98.05
2023-04-15T21:46:33.135Z,98.05
2023-04-15T21:50:29.336Z,98.08
2023-04-15T21:52:30.399Z,98.08
2023-04-15T21:56:33.250Z,98.08
2023-04-15T21:58:35.169Z,98.09
2023-04-15T22:00:36.549Z,98.1
2023-04-15T22:02:38.057Z,98.09
2023-04-15T22:06:41.198Z,98.13
2023-04-15T22:08:52.918Z,98.15
2023-04-15T22:10:52.726Z,98.16
2023-04-15T22:12:46.028Z,98.17
2023-04-15T22:16:48.928Z,98.16
2023-04-15T22:18:50.665Z,98.17
2023-04-15T22:22:54.401Z,98.22
2023-04-15T22:26:56.820Z,98.21
2023-04-15T22:28:58.759Z,98.23
2023-04-15T22:33:02.009Z,98.24
2023-04-15T22:35:03.314Z,98.25
2023-04-15T22:39:06.041Z,98.26
2023-04-15T22:43:09.240Z,98.27
2023-04-15T22:45:10.796Z,98.27
2023-04-15T22:49:13.822Z,98.29
2023-04-15T22:51:15.535Z,98.32
2023-04-15T22:55:18.069Z,98.32
2023-04-15T22:59:20.479Z,98.36
2023-04-15T23:01:22.336Z,98.34
2023-04-15T23:05:24.892Z,98.37
2023-04-15T23:09:27.909Z,98.37
2023-04-15T23:11:29.814Z,98.41
2023-04-15T23:15:32.110Z,98.41
2023-04-15T23:17:33.957Z,98.42
2023-04-15T23:21:36.746Z,98.46
2023-04-15T23:25:39.050Z,98.46
2023-04-15T23:27:40.640Z,98.48
2023-04-15T23:29:42.207Z,98.47
2023-04-15T23:31:44.166Z,98.49
2023-04-15T23:33:45.769Z,98.52
2023-04-15T23:37:49.114Z,98.52
2023-04-15T23:41:51.666Z,98.55
2023-04-15T23:43:53.562Z,98.56
2023-04-15T23:47:56.315Z,98.54
2023-04-15T23:51:59.128Z,98.57
2023-04-15T23:54:00.680Z,98.57
2023-04-15T23:58:03.286Z,98.57
